createdAt,value
2022-11-21T00:02:10.724Z,4.00
2022-11-21T00:04:37.543Z,4.00
2022-11-21T00:07:04.330Z,3.96
2022-11-21T00:09:34.287Z,3.93
2022-11-21T00:12:00.970Z,3.93
2022-11-21T00:14:27.925Z,3.97
2022-11-21T00:16:57.467Z,3.94
2022-11-21T00:19:24.505Z,3.94
2022-11-21T00:21:51.193Z,3.88
2022-11-21T00:24:17.883Z,3.91
2022-11-21T00:26:46.082Z,3.94
2022-11-21T00:29:12.801Z,3.94
2022-11-21T00:31:39.439Z,4.00
2022-11-21T00:34:06.068Z,4.00
2022-11-21T00:36:32.843Z,3.97
2022-11-21T00:38:59.560Z,4.08
2022-11-21T00:41:26.288Z,4.04
2022-11-21T00:43:54.359Z,4.03
2022-11-21T00:46:21.087Z,4.07
2022-11-21T00:48:47.689Z,3.99
2022-11-21T00:51:14.369Z,4.13
2022-11-21T00:53:41.628Z,4.11
2022-11-21T00:56:08.474Z,4.13
2022-11-21T00:58:35.453Z,4.09
2022-11-21T01:01:05.684Z,4.11
2022-11-21T01:03:33.989Z,4.10
2022-11-21T01:06:02.481Z,4.19
2022-11-21T01:08:29.321Z,4.19
2022-11-21T01:10:56.079Z,4.20
2022-11-21T01:13:22.969Z,4.22
2022-11-21T01:15:49.804Z,4.14
2022-11-21T01:18:17.864Z,4.25
2022-11-21T01:20:44.610Z,4.25
2022-11-21T01:23:11.309Z,4.22
2022-11-21T01:25:37.974Z,4.20
2022-11-21T01:28:04.822Z,4.24
2022-11-21T01:30:31.582Z,4.24
2022-11-21T01:32:58.268Z,4.19
2022-11-21T01:35:26.538Z,4.21
2022-11-21T01:37:53.278Z,4.26
2022-11-21T01:40:20.007Z,4.19
2022-11-21T01:42:53.485Z,4.16
2022-11-21T01:45:55.068Z,4.11
2022-11-21T01:48:26.364Z,4.10
2022-11-21T01:50:56.510Z,4.16
2022-11-21T01:53:23.668Z,4.17
2022-11-21T01:55:51.044Z,4.13
2022-11-21T01:58:18.281Z,4.22
2022-11-21T02:00:47.170Z,4.17
2022-11-21T02:03:17.798Z,4.12
2022-11-21T02:05:44.704Z,4.17
2022-11-21T02:08:17.790Z,4.17
2022-11-21T02:10:54.135Z,4.17
2022-11-21T02:13:22.865Z,4.14
2022-11-21T02:15:49.644Z,4.14
2022-11-21T02:18:16.410Z,4.22
2022-11-21T02:20:46.074Z,4.21
2022-11-21T02:23:25.127Z,4.08
2022-11-21T02:25:54.119Z,4.11
2022-11-21T02:28:24.210Z,4.07
2022-11-21T02:30:51.116Z,4.08
2022-11-21T02:33:18.811Z,4.07
2022-11-21T02:35:55.172Z,4.05
2022-11-21T02:38:25.090Z,4.05
2022-11-21T02:40:59.602Z,4.04
2022-11-21T02:43:31.532Z,3.97
2022-11-21T02:45:59.075Z,3.94
2022-11-21T02:48:25.878Z,3.97
2022-11-21T02:50:52.582Z,4.04
2022-11-21T02:53:19.592Z,4.05
2022-11-21T02:55:46.309Z,4.02
2022-11-21T02:58:14.795Z,3.95
2022-11-21T03:00:42.767Z,3.95
2022-11-21T03:03:09.920Z,4.00
2022-11-21T03:05:37.371Z,4.05
2022-11-21T03:08:05.203Z,4.06
2022-11-21T03:10:32.135Z,4.12
2022-11-21T03:13:01.879Z,4.08
2022-11-21T03:15:31.203Z,4.01
2022-11-21T03:17:58.513Z,4.06
2022-11-21T03:20:25.162Z,4.05
2022-11-21T03:22:53.555Z,4.05
2022-11-21T03:25:20.482Z,4.15
2022-11-21T03:27:50.762Z,4.16
2022-11-21T03:30:17.501Z,4.16
2022-11-21T03:32:45.609Z,4.22
2022-11-21T03:35:12.304Z,4.25
2022-11-21T03:37:38.969Z,4.23
2022-11-21T03:40:07.255Z,4.23
2022-11-21T03:42:33.904Z,4.21
2022-11-21T03:45:00.655Z,4.18
2022-11-21T03:47:27.566Z,4.19
2022-11-21T03:49:55.600Z,4.22
2022-11-21T03:52:22.400Z,4.24
2022-11-21T03:54:49.124Z,4.24
2022-11-21T03:57:15.735Z,4.18
2022-11-21T03:59:42.454Z,4.15
2022-11-21T04:02:09.101Z,4.22
2022-11-21T04:04:35.842Z,4.20
2022-11-21T04:07:04.031Z,4.25
2022-11-21T04:09:30.758Z,4.21
2022-11-21T04:11:57.422Z,4.24
2022-11-21T04:14:24.155Z,4.25
2022-11-21T04:16:50.891Z,4.24
2022-11-21T04:19:17.606Z,4.24
2022-11-21T04:21:44.250Z,4.25
2022-11-21T04:24:12.565Z,4.21
2022-11-21T04:26:39.269Z,4.24
2022-11-21T04:29:06.055Z,4.20
2022-11-21T04:31:32.744Z,4.18
2022-11-21T04:33:59.548Z,4.21
2022-11-21T04:36:26.270Z,4.23
2022-11-21T04:38:53.070Z,4.21
2022-11-21T04:41:21.041Z,4.19
2022-11-21T04:43:47.782Z,4.11
2022-11-21T04:46:14.406Z,4.14
2022-11-21T04:48:41.087Z,4.11
2022-11-21T04:51:07.714Z,4.19
2022-11-21T04:53:38.593Z,4.18
2022-11-21T04:56:08.251Z,4.22
2022-11-21T04:58:36.415Z,4.19
2022-11-21T05:01:07.752Z,4.21
2022-11-21T05:03:34.530Z,4.15
2022-11-21T05:06:01.544Z,4.14
2022-11-21T05:08:28.459Z,4.13
2022-11-21T05:11:13.683Z,4.07
2022-11-21T05:13:41.854Z,4.07
2022-11-21T05:16:08.580Z,4.01
2022-11-21T05:18:35.231Z,3.95
2022-11-21T05:21:03.065Z,4.07
2022-11-21T05:23:29.821Z,4.08
2022-11-21T05:25:56.599Z,4.07
2022-11-21T05:28:23.317Z,4.06
2022-11-21T05:30:51.635Z,4.10
2022-11-21T05:33:18.672Z,4.10
2022-11-21T05:35:45.477Z,4.06
2022-11-21T05:38:12.249Z,4.01
2022-11-21T05:40:39.078Z,3.98
2022-11-21T05:43:24.290Z,3.95
2022-11-21T05:45:52.362Z,3.92
2022-11-21T05:48:19.014Z,3.83
2022-11-21T05:50:48.540Z,3.79
2022-11-21T05:53:15.538Z,3.80
2022-11-21T05:55:42.263Z,3.82
2022-11-21T05:58:10.753Z,3.78
2022-11-21T06:00:41.367Z,3.81
2022-11-21T06:03:28.488Z,3.79
2022-11-21T06:06:06.614Z,3.76
2022-11-21T06:08:36.274Z,3.72
2022-11-21T06:11:03.850Z,3.72
2022-11-21T06:13:31.088Z,3.72
2022-11-21T06:16:00.960Z,3.67
2022-11-21T06:18:31.375Z,3.73
2022-11-21T06:21:01.796Z,3.76
2022-11-21T06:23:28.458Z,3.82
2022-11-21T06:25:57.192Z,3.88
2022-11-21T06:28:23.995Z,3.83
2022-11-21T06:30:51.946Z,3.76
2022-11-21T06:33:19.845Z,3.72
2022-11-21T06:35:48.036Z,3.76
2022-11-21T06:38:18.689Z,3.73
2022-11-21T06:40:45.521Z,3.73
2022-11-21T06:43:12.286Z,3.71
2022-11-21T06:45:39.191Z,3.72
2022-11-21T06:48:06.410Z,3.70
2022-11-21T06:50:33.101Z,3.67
2022-11-21T06:53:01.551Z,3.69
2022-11-21T06:55:29.819Z,3.70
2022-11-21T06:57:58.457Z,3.71
2022-11-21T07:00:25.305Z,3.72
2022-11-21T07:02:52.138Z,3.77
2022-11-21T07:05:18.972Z,3.83
2022-11-21T07:07:45.782Z,3.85
2022-11-21T07:10:14.280Z,3.88
2022-11-21T07:12:59.444Z,3.91
2022-11-21T07:15:26.144Z,3.93
2022-11-21T07:17:52.824Z,3.95
2022-11-21T07:20:19.574Z,3.95
2022-11-21T07:22:46.219Z,3.94
2022-11-21T07:25:14.382Z,3.94
2022-11-21T07:27:41.107Z,3.97
2022-11-21T07:30:09.326Z,3.96
2022-11-21T07:32:38.955Z,3.94
2022-11-21T07:35:06.708Z,3.95
2022-11-21T07:37:33.469Z,3.96
2022-11-21T07:40:00.254Z,3.93
2022-11-21T07:42:28.352Z,3.96
2022-11-21T07:44:55.078Z,3.95
2022-11-21T07:47:21.883Z,3.98
2022-11-21T07:49:48.639Z,4.02
2022-11-21T07:52:15.321Z,4.03
2022-11-21T07:54:41.974Z,4.01
2022-11-21T07:57:08.825Z,4.02
2022-11-21T07:59:37.329Z,4.01
2022-11-21T08:02:04.242Z,4.05
2022-11-21T08:04:31.145Z,4.03
2022-11-21T08:06:57.941Z,4.04
2022-11-21T08:09:28.350Z,4.06
2022-11-21T08:11:55.164Z,4.06
2022-11-21T08:14:22.006Z,4.09
2022-11-21T08:16:53.073Z,4.18
2022-11-21T08:19:19.768Z,4.15
2022-11-21T08:21:46.582Z,4.16
2022-11-21T08:24:14.687Z,4.18
2022-11-21T08:26:41.546Z,4.20
2022-11-21T08:29:12.152Z,4.26
2022-11-21T08:31:41.746Z,4.27
2022-11-21T08:34:14.372Z,4.28
2022-11-21T08:36:41.670Z,4.25
2022-11-21T08:39:08.521Z,4.31
2022-11-21T08:41:53.602Z,4.27
2022-11-21T08:44:20.365Z,4.27
2022-11-21T08:46:47.046Z,4.29
2022-11-21T08:49:15.493Z,4.25
2022-11-21T08:51:42.599Z,4.26
2022-11-21T08:54:09.764Z,4.30
2022-11-21T08:56:36.515Z,4.30
2022-11-21T08:59:03.441Z,4.35
2022-11-21T09:01:30.258Z,4.36
2022-11-21T09:03:57.350Z,4.37
2022-11-21T09:10:59.049Z,4.57
2022-11-21T09:13:27.619Z,4.67
2022-11-21T09:16:17.642Z,4.60
2022-11-21T09:18:47.170Z,4.67
2022-11-21T09:21:14.885Z,4.68
2022-11-21T09:23:41.599Z,4.62
2022-11-21T09:26:08.348Z,4.70
2022-11-21T09:28:36.706Z,4.73
2022-11-21T09:31:04.649Z,4.72
2022-11-21T09:33:32.172Z,4.69
2022-11-21T09:35:59.425Z,4.62
2022-11-21T09:38:26.958Z,4.52
2022-11-21T09:41:22.439Z,4.53
2022-11-21T09:43:58.685Z,4.55
2022-11-21T09:46:35.921Z,4.49
2022-11-21T09:49:07.346Z,4.59
2022-11-21T09:51:38.847Z,4.65
2022-11-21T09:54:12.037Z,4.74
2022-11-21T09:56:42.426Z,4.81
2022-11-21T09:59:27.506Z,4.76
2022-11-21T10:01:56.683Z,4.85
2022-11-21T10:04:25.471Z,4.96
2022-11-21T10:07:04.400Z,5.09
2022-11-21T10:09:48.242Z,5.08
2022-11-21T10:12:40.015Z,5.10
2022-11-21T10:15:26.462Z,5.01
2022-11-21T10:18:09.972Z,4.87
2022-11-21T10:20:54.450Z,4.84
2022-11-21T10:23:40.132Z,4.81
2022-11-21T10:26:16.451Z,5.08
2022-11-21T10:28:51.565Z,5.46
2022-11-21T10:31:20.764Z,5.60
2022-11-21T10:33:49.385Z,5.83
2022-11-21T10:36:25.538Z,5.84
2022-11-21T10:38:58.545Z,6.04
2022-11-21T10:41:38.988Z,6.28
2022-11-21T10:44:33.451Z,6.17
2022-11-21T10:47:02.102Z,5.99
2022-11-21T10:49:33.692Z,5.65
2022-11-21T10:52:06.072Z,5.45
2022-11-21T10:54:32.927Z,5.89
2022-11-21T10:57:06.888Z,-147.88
2022-11-21T10:59:33.687Z,-147.88
2022-11-21T11:02:20.660Z,-147.88
2022-11-21T11:04:52.020Z,-147.88
2022-11-21T11:07:24.887Z,-147.88
2022-11-21T11:09:52.716Z,-147.88
2022-11-21T11:12:47.803Z,-147.88
2022-11-21T11:15:19.897Z,-147.88
2022-11-21T11:17:54.168Z,-147.88
2022-11-21T11:20:32.881Z,-147.88
2022-11-21T11:22:59.743Z,-147.88
2022-11-21T11:25:26.838Z,-147.88
2022-11-21T11:27:53.818Z,-147.88
2022-11-21T11:30:21.285Z,-147.88
2022-11-21T11:32:48.144Z,-147.88
2022-11-21T11:35:22.292Z,-147.88
2022-11-21T11:37:59.069Z,-147.88
2022-11-21T11:40:30.403Z,-147.88
2022-11-21T11:43:32.219Z,-147.88
2022-11-21T11:46:30.962Z,-147.88
2022-11-21T11:49:19.882Z,-147.88
2022-11-21T11:51:53.221Z,-147.88
2022-11-21T11:54:23.757Z,-147.88
2022-11-21T11:56:50.793Z,6.37
2022-11-21T11:59:22.732Z,6.29
2022-11-21T12:01:57.163Z,6.24
2022-11-21T12:04:25.504Z,6.04
2022-11-21T12:08:05.885Z,6.00
2022-11-21T12:09:55.030Z,5.88
2022-11-21T12:12:32.882Z,-147.88
2022-11-21T12:15:33.031Z,-147.88
2022-11-21T12:18:20.714Z,-147.88
2022-11-21T12:20:56.403Z,-147.88
2022-11-21T12:23:27.728Z,-147.88
2022-11-21T12:26:07.914Z,-147.88
2022-11-21T12:28:45.582Z,-147.88
2022-11-21T12:31:16.940Z,-147.88
2022-11-21T12:33:51.897Z,-147.88
2022-11-21T12:36:28.334Z,-147.88
2022-11-21T12:39:25.920Z,-147.88
2022-11-21T12:42:18.775Z,-147.88
2022-11-21T12:45:02.992Z,-147.88
2022-11-21T12:48:09.497Z,-147.88
2022-11-21T12:51:09.003Z,-147.88
2022-11-21T12:54:03.713Z,-147.88
2022-11-21T12:56:45.396Z,-147.88
2022-11-21T12:59:14.388Z,-147.88
2022-11-21T13:01:52.918Z,-147.88
2022-11-21T13:04:24.842Z,-147.88
2022-11-21T13:06:53.607Z,-147.88
2022-11-21T13:09:23.635Z,-147.88
2022-11-21T13:12:00.431Z,-147.88
2022-11-21T13:14:37.652Z,-147.88
2022-11-21T13:17:15.067Z,-147.88
2022-11-21T13:19:50.445Z,-147.88
2022-11-21T13:22:52.230Z,-147.88
2022-11-21T13:25:43.360Z,-147.88
2022-11-21T13:28:34.649Z,-147.88
2022-11-21T13:31:03.633Z,-147.88
2022-11-21T13:33:55.644Z,-147.88
2022-11-21T13:36:39.025Z,-147.88
2022-11-21T13:39:33.978Z,-147.88
2022-11-21T13:42:24.749Z,-147.88
2022-11-21T13:44:53.587Z,-147.88
2022-11-21T13:47:56.630Z,-147.88
2022-11-21T13:51:13.307Z,-147.88
2022-11-21T13:54:17.119Z,-147.88
2022-11-21T13:57:03.848Z,-147.88
2022-11-21T13:59:49.119Z,-147.88
2022-11-21T14:02:56.478Z,-147.88
2022-11-21T14:05:39.378Z,-147.88
2022-11-21T14:08:17.031Z,-147.88
2022-11-21T14:10:47.464Z,-147.88
2022-11-21T14:13:24.398Z,-147.88
2022-11-21T14:16:03.977Z,-147.88
2022-11-21T14:18:33.409Z,-147.88
2022-11-21T14:21:02.101Z,-147.88
2022-11-21T14:23:31.524Z,-147.88
2022-11-21T14:26:02.126Z,-147.88
2022-11-21T14:28:30.874Z,-147.88
2022-11-21T14:30:59.217Z,-147.88
2022-11-21T14:33:34.562Z,-147.88
2022-11-21T14:36:06.820Z,5.88
2022-11-21T14:38:40.139Z,-147.88
2022-11-21T14:41:29.824Z,-147.88
2022-11-21T14:44:23.153Z,-147.88
2022-11-21T14:46:51.547Z,-147.88
2022-11-21T14:49:22.680Z,-147.88
2022-11-21T14:51:51.315Z,-147.88
2022-11-21T14:54:21.177Z,-147.88
2022-11-21T14:56:55.877Z,-147.88
2022-11-21T14:59:26.991Z,-147.88
2022-11-21T15:02:00.038Z,-147.88
2022-11-21T15:04:31.698Z,-147.88
2022-11-21T15:06:59.491Z,-147.88
2022-11-21T15:10:26.191Z,-147.88
2022-11-21T15:12:17.553Z,-147.88
2022-11-21T15:14:49.372Z,-147.88
2022-11-21T15:17:23.295Z,-147.88
2022-11-21T15:20:09.831Z,-147.88
2022-11-21T15:22:41.341Z,4.48
2022-11-21T15:25:16.021Z,4.41
2022-11-21T15:27:43.831Z,4.32
2022-11-21T15:30:28.645Z,4.17
2022-11-21T15:33:04.754Z,4.12
2022-11-21T15:35:49.953Z,4.09
2022-11-21T15:38:29.318Z,4.06
2022-11-21T15:40:59.163Z,-147.88
2022-11-21T15:43:43.106Z,-147.88
2022-11-21T15:46:19.185Z,-147.88
2022-11-21T15:48:49.700Z,-147.88
2022-11-21T15:51:31.839Z,-147.88
2022-11-21T15:54:08.195Z,-147.88
2022-11-21T15:56:35.577Z,-147.88
2022-11-21T15:59:02.729Z,-147.88
2022-11-21T16:01:30.566Z,-147.88
2022-11-21T16:03:58.892Z,-147.88
2022-11-21T16:06:27.622Z,-147.88
2022-11-21T16:08:54.561Z,-147.88
2022-11-21T16:11:23.770Z,-147.88
2022-11-21T16:13:50.557Z,-147.88
2022-11-21T16:16:17.635Z,-147.88
2022-11-21T16:18:44.466Z,-147.88
2022-11-21T16:21:11.845Z,-147.88
2022-11-21T16:23:40.167Z,-147.88
2022-11-21T16:26:08.365Z,-147.88
2022-11-21T16:28:36.342Z,-147.88
2022-11-21T16:31:05.042Z,-147.88
2022-11-21T16:33:33.261Z,-147.88
2022-11-21T16:36:00.435Z,-147.88
2022-11-21T16:38:28.497Z,-147.88
2022-11-21T16:40:59.055Z,-147.88
2022-11-21T16:43:27.025Z,-147.88
2022-11-21T16:45:54.086Z,3.35
2022-11-21T16:48:21.481Z,3.36
2022-11-21T16:50:48.541Z,3.21
2022-11-21T16:53:17.094Z,3.11
2022-11-21T16:55:44.293Z,3.03
2022-11-21T16:58:14.850Z,2.99
2022-11-21T17:00:42.669Z,3.02
2022-11-21T17:03:10.302Z,3.16
2022-11-21T17:05:37.011Z,-147.88
2022-11-21T17:08:04.340Z,-147.88
2022-11-21T17:10:33.974Z,3.29
2022-11-21T17:13:01.838Z,3.33
2022-11-21T17:15:30.033Z,3.33
2022-11-21T17:18:01.860Z,3.33
2022-11-21T17:20:28.613Z,3.37
2022-11-21T17:22:55.320Z,3.42
2022-11-21T17:25:22.056Z,3.40
2022-11-21T17:27:48.746Z,3.42
2022-11-21T17:30:15.948Z,3.42
2022-11-21T17:32:44.004Z,3.39
2022-11-21T17:35:11.541Z,3.42
2022-11-21T17:37:38.280Z,3.38
2022-11-21T17:40:06.765Z,3.43
2022-11-21T17:42:33.626Z,3.38
2022-11-21T17:45:00.388Z,3.34
2022-11-21T17:47:27.641Z,3.31
2022-11-21T17:49:56.766Z,3.35
2022-11-21T17:52:25.797Z,3.31
2022-11-21T17:54:52.597Z,3.34
2022-11-21T17:57:21.816Z,3.31
2022-11-21T17:59:48.550Z,3.28
2022-11-21T18:02:15.739Z,3.24
2022-11-21T18:04:42.674Z,3.16
2022-11-21T18:07:11.285Z,3.14
2022-11-21T18:09:38.115Z,3.09
2022-11-21T18:12:05.757Z,3.02
2022-11-21T18:14:32.554Z,3.01
2022-11-21T18:16:59.326Z,2.99
2022-11-21T18:19:26.150Z,3.01
2022-11-21T18:21:53.059Z,2.94
2022-11-21T18:24:21.778Z,2.97
2022-11-21T18:26:48.676Z,2.88
2022-11-21T18:32:03.388Z,2.95
2022-11-21T18:34:30.391Z,3.08
2022-11-21T18:36:57.197Z,3.09
2022-11-21T18:39:27.235Z,3.05
2022-11-21T18:41:54.101Z,3.06
2022-11-21T18:44:22.590Z,3.02
2022-11-21T18:46:50.239Z,3.00
2022-11-21T18:49:18.027Z,3.00
2022-11-21T18:51:45.113Z,3.00
2022-11-21T18:54:11.949Z,2.99
2022-11-21T18:56:40.616Z,3.02
2022-11-21T18:59:10.046Z,3.01
2022-11-21T19:01:41.255Z,3.08
2022-11-21T19:04:12.049Z,3.18
2022-11-21T19:06:40.486Z,3.16
2022-11-21T19:09:08.233Z,3.18
2022-11-21T19:11:35.063Z,3.13
2022-11-21T19:14:03.641Z,3.14
2022-11-21T19:16:34.946Z,3.12
2022-11-21T19:19:33.099Z,3.06
2022-11-21T19:21:51.897Z,-147.88
2022-11-21T19:24:19.541Z,3.08
2022-11-21T19:26:46.530Z,3.08
2022-11-21T19:29:14.612Z,3.05
2022-11-21T19:31:45.781Z,3.03
2022-11-21T19:34:13.176Z,3.02
2022-11-21T19:36:40.514Z,3.03
2022-11-21T19:39:07.894Z,2.97
2022-11-21T19:41:34.905Z,2.98
2022-11-21T19:44:02.207Z,3.01
2022-11-21T19:46:32.296Z,2.96
2022-11-21T19:49:00.473Z,2.96
2022-11-21T19:51:29.486Z,2.95
2022-11-21T19:53:56.552Z,2.94
2022-11-21T19:56:25.411Z,2.93
2022-11-21T19:58:53.504Z,2.87
2022-11-21T20:01:21.948Z,2.90
2022-11-21T20:03:51.994Z,2.88
2022-11-21T20:06:20.718Z,2.91
2022-11-21T20:08:49.776Z,2.89
2022-11-21T20:11:16.878Z,2.78
2022-11-21T20:13:45.273Z,2.80
2022-11-21T20:16:19.385Z,2.86
2022-11-21T20:18:46.894Z,2.92
2022-11-21T20:21:15.723Z,2.90
2022-11-21T20:23:42.877Z,2.92
2022-11-21T20:26:10.032Z,2.98
2022-11-21T20:28:37.538Z,2.98
2022-11-21T20:31:10.493Z,3.22
2022-11-21T20:33:40.996Z,3.45
2022-11-21T20:36:10.919Z,3.57
2022-11-21T20:38:41.663Z,3.72
2022-11-21T20:41:08.454Z,3.81
2022-11-21T20:44:14.387Z,3.77
2022-11-21T20:46:22.877Z,3.77
2022-11-21T20:48:50.051Z,3.81
2022-11-21T20:54:07.493Z,3.85
2022-11-21T20:56:35.571Z,3.87
2022-11-21T20:59:02.686Z,3.91
2022-11-21T21:01:29.838Z,3.93
2022-11-21T21:03:56.862Z,4.01
2022-11-21T21:06:26.779Z,3.99
2022-11-21T21:08:53.594Z,3.90
2022-11-21T21:14:10.345Z,3.73
2022-11-21T21:16:37.104Z,3.62
2022-11-21T21:19:03.885Z,3.58
2022-11-21T21:21:33.446Z,3.51
2022-11-21T21:24:03.326Z,3.39
2022-11-21T21:26:40.248Z,3.31
2022-11-21T21:29:10.472Z,3.23
2022-11-21T21:31:37.115Z,3.25
2022-11-21T21:34:03.898Z,3.17
2022-11-21T21:36:32.110Z,3.29
2022-11-21T21:39:00.296Z,3.41
2022-11-21T21:41:29.236Z,3.30
2022-11-21T21:43:58.281Z,3.20
2022-11-21T21:46:27.241Z,3.11
2022-11-21T21:48:55.912Z,3.02
2022-11-21T21:51:24.739Z,2.96
2022-11-21T21:53:52.590Z,3.04
2022-11-21T21:56:20.696Z,2.96
2022-11-21T21:58:48.594Z,2.99
2022-11-21T22:01:18.078Z,2.92
2022-11-21T22:03:46.658Z,2.85
2022-11-21T22:06:16.282Z,2.83
2022-11-21T22:08:44.451Z,2.77
2022-11-21T22:11:13.646Z,2.80
2022-11-21T22:13:42.784Z,2.74
2022-11-21T22:16:10.996Z,2.80
2022-11-21T22:18:39.832Z,2.78
2022-11-21T22:21:13.500Z,2.73
2022-11-21T22:23:56.129Z,2.75
2022-11-21T22:26:26.968Z,2.74
2022-11-21T22:28:54.146Z,2.92
2022-11-21T22:31:20.982Z,2.87
2022-11-21T22:33:49.534Z,2.91
2022-11-21T22:36:18.043Z,2.79
2022-11-21T22:38:45.589Z,2.77
2022-11-21T22:41:15.503Z,2.80
2022-11-21T22:43:42.894Z,2.82
2022-11-21T22:46:11.531Z,2.82
2022-11-21T22:48:38.543Z,2.80
2022-11-21T22:51:07.567Z,2.85
2022-11-21T22:53:39.716Z,2.92
2022-11-21T22:56:08.521Z,2.90
2022-11-21T22:58:36.946Z,2.91
2022-11-21T23:01:12.370Z,2.98
2022-11-21T23:03:39.407Z,2.97
2022-11-21T23:06:10.073Z,2.99
2022-11-21T23:08:37.376Z,3.01
2022-11-21T23:11:05.334Z,2.96
2022-11-21T23:13:32.659Z,2.96
2022-11-21T23:15:59.357Z,2.99
2022-11-21T23:18:26.218Z,2.95
2022-11-21T23:20:52.896Z,3.03
2022-11-21T23:23:21.175Z,3.08
2022-11-21T23:25:47.854Z,3.11
2022-11-21T23:28:14.599Z,3.10
2022-11-21T23:30:43.341Z,3.15
2022-11-21T23:33:10.018Z,3.16
2022-11-21T23:35:36.889Z,3.19
2022-11-21T23:38:04.197Z,3.19
2022-11-21T23:40:32.303Z,3.21
2022-11-21T23:42:59.036Z,3.23
2022-11-21T23:45:25.984Z,3.19
2022-11-21T23:47:52.667Z,3.24
2022-11-21T23:50:21.125Z,3.23
2022-11-21T23:52:48.349Z,3.19
2022-11-21T23:55:15.480Z,3.19
2022-11-21T23:57:46.648Z,3.22
